sensor_id;sensor_type;location;lat;lon;timestamp;temperature;humidity
13375;DHT22;6756;51.354;15.754;2022-10-30T00:02:17;14.60;99.90
13375;DHT22;6756;51.354;15.754;2022-10-30T00:06:19;14.50;99.90
13375;DHT22;6756;51.354;15.754;2022-10-30T00:10:19;14.50;99.90
13375;DHT22;6756;51.354;15.754;2022-10-30T00:14:20;14.40;1.00
13375;DHT22;6756;51.354;15.754;2022-10-30T00:18:21;14.40;1.00
13375;DHT22;6756;51.354;15.754;2022-10-30T00:22:22;14.30;1.00
13375;DHT22;6756;51.354;15.754;2022-10-30T00:26:23;14.30;99.90
13375;DHT22;6756;51.354;15.754;2022-10-30T00:30:25;14.30;99.90
13375;DHT22;6756;51.354;15.754;2022-10-30T00:34:25;14.30;99.90
13375;DHT22;6756;51.354;15.754;2022-10-30T00:38:26;14.30;19.00
13375;DHT22;6756;51.354;15.754;2022-10-30T00:42:30;14.30;17.70
13375;DHT22;6756;51.354;15.754;2022-10-30T00:46:39;14.30;43.70
13375;DHT22;6756;51.354;15.754;2022-10-30T00:50:40;14.30;93.50
13375;DHT22;6756;51.354;15.754;2022-10-30T00:54:41;14.30;1.00
13375;DHT22;6756;51.354;15.754;2022-10-30T00:58:49;14.30;1.00
13375;DHT22;6756;51.354;15.754;2022-10-30T01:02:51;14.40;99.90
13375;DHT22;6756;51.354;15.754;2022-10-30T01:06:52;14.40;99.90
13375;DHT22;6756;51.354;15.754;2022-10-30T01:10:53;14.30;99.90
13375;DHT22;6756;51.354;15.754;2022-10-30T01:14:58;14.20;1.00
13375;DHT22;6756;51.354;15.754;2022-10-30T01:36:29;14.10;99.90
13375;DHT22;6756;51.354;15.754;2022-10-30T01:40:32;14.10;99.90
13375;DHT22;6756;51.354;15.754;2022-10-30T01:44:33;14.00;99.90
13375;DHT22;6756;51.354;15.754;2022-10-30T01:53:10;14.00;99.90
13375;DHT22;6756;51.354;15.754;2022-10-30T01:57:36;14.10;99.90
13375;DHT22;6756;51.354;15.754;2022-10-30T02:01:38;14.00;99.90
13375;DHT22;6756;51.354;15.754;2022-10-30T02:05:46;14.00;99.90
13375;DHT22;6756;51.354;15.754;2022-10-30T02:09:50;13.90;99.90
13375;DHT22;6756;51.354;15.754;2022-10-30T02:13:53;13.80;99.90
13375;DHT22;6756;51.354;15.754;2022-10-30T02:17:55;13.80;1.00
13375;DHT22;6756;51.354;15.754;2022-10-30T02:21:56;13.80;1.00
13375;DHT22;6756;51.354;15.754;2022-10-30T02:25:56;13.70;99.90
13375;DHT22;6756;51.354;15.754;2022-10-30T02:29:57;13.70;99.90
13375;DHT22;6756;51.354;15.754;2022-10-30T02:33:59;13.70;1.00
13375;DHT22;6756;51.354;15.754;2022-10-30T02:38:01;13.60;99.90
13375;DHT22;6756;51.354;15.754;2022-10-30T02:42:01;13.60;1.00
13375;DHT22;6756;51.354;15.754;2022-10-30T02:46:02;13.50;1.00
13375;DHT22;6756;51.354;15.754;2022-10-30T02:50:03;13.50;1.00
13375;DHT22;6756;51.354;15.754;2022-10-30T02:54:04;13.40;99.90
13375;DHT22;6756;51.354;15.754;2022-10-30T02:58:05;13.30;1.00
13375;DHT22;6756;51.354;15.754;2022-10-30T03:02:06;13.30;99.90
13375;DHT22;6756;51.354;15.754;2022-10-30T03:06:08;13.20;99.90
13375;DHT22;6756;51.354;15.754;2022-10-30T03:10:09;13.10;1.00
13375;DHT22;6756;51.354;15.754;2022-10-30T03:14:11;13.10;99.90
13375;DHT22;6756;51.354;15.754;2022-10-30T03:18:11;13.10;99.90
13375;DHT22;6756;51.354;15.754;2022-10-30T03:22:12;13.00;99.90
13375;DHT22;6756;51.354;15.754;2022-10-30T03:26:13;13.10;99.90
13375;DHT22;6756;51.354;15.754;2022-10-30T03:30:13;13.10;1.00
13375;DHT22;6756;51.354;15.754;2022-10-30T03:34:14;13.10;1.00
13375;DHT22;6756;51.354;15.754;2022-10-30T03:38:15;13.00;99.90
13375;DHT22;6756;51.354;15.754;2022-10-30T03:42:16;12.90;99.90
13375;DHT22;6756;51.354;15.754;2022-10-30T03:46:16;12.80;85.10
13375;DHT22;6756;51.354;15.754;2022-10-30T03:50:17;12.80;99.90
13375;DHT22;6756;51.354;15.754;2022-10-30T03:54:18;12.80;99.90
13375;DHT22;6756;51.354;15.754;2022-10-30T03:58:19;12.80;99.90
13375;DHT22;6756;51.354;15.754;2022-10-30T04:02:19;12.80;99.90
13375;DHT22;6756;51.354;15.754;2022-10-30T04:06:20;12.70;99.90
13375;DHT22;6756;51.354;15.754;2022-10-30T04:10:21;12.70;99.90
13375;DHT22;6756;51.354;15.754;2022-10-30T04:14:22;12.70;99.90
13375;DHT22;6756;51.354;15.754;2022-10-30T04:18:24;12.60;1.00
13375;DHT22;6756;51.354;15.754;2022-10-30T04:22:25;12.60;1.00
13375;DHT22;6756;51.354;15.754;2022-10-30T04:26:26;12.60;1.00
13375;DHT22;6756;51.354;15.754;2022-10-30T04:30:27;12.60;1.00
13375;DHT22;6756;51.354;15.754;2022-10-30T04:34:30;12.60;1.00
13375;DHT22;6756;51.354;15.754;2022-10-30T04:38:31;12.60;1.00
13375;DHT22;6756;51.354;15.754;2022-10-30T04:42:32;12.60;6.50
13375;DHT22;6756;51.354;15.754;2022-10-30T04:46:32;12.60;94.40
13375;DHT22;6756;51.354;15.754;2022-10-30T04:50:34;12.60;1.00
13375;DHT22;6756;51.354;15.754;2022-10-30T04:54:35;12.50;1.00
13375;DHT22;6756;51.354;15.754;2022-10-30T04:58:36;12.40;1.00
13375;DHT22;6756;51.354;15.754;2022-10-30T05:02:36;12.30;1.00
13375;DHT22;6756;51.354;15.754;2022-10-30T05:06:37;12.20;64.90
13375;DHT22;6756;51.354;15.754;2022-10-30T05:10:39;12.20;56.60
13375;DHT22;6756;51.354;15.754;2022-10-30T05:14:40;12.10;90.10
13375;DHT22;6756;51.354;15.754;2022-10-30T05:18:41;12.00;99.90
13375;DHT22;6756;51.354;15.754;2022-10-30T05:22:41;11.90;99.90
13375;DHT22;6756;51.354;15.754;2022-10-30T05:26:42;12.00;99.90
13375;DHT22;6756;51.354;15.754;2022-10-30T05:30:43;12.00;99.90
13375;DHT22;6756;51.354;15.754;2022-10-30T05:34:44;12.00;99.90
13375;DHT22;6756;51.354;15.754;2022-10-30T05:38:45;11.90;99.90
13375;DHT22;6756;51.354;15.754;2022-10-30T05:42:47;11.90;99.90
13375;DHT22;6756;51.354;15.754;2022-10-30T05:46:48;11.90;99.90
13375;DHT22;6756;51.354;15.754;2022-10-30T05:50:48;12.00;99.90
13375;DHT22;6756;51.354;15.754;2022-10-30T05:54:49;12.20;99.90
13375;DHT22;6756;51.354;15.754;2022-10-30T05:58:50;12.30;99.90
13375;DHT22;6756;51.354;15.754;2022-10-30T06:02:51;12.50;99.90
13375;DHT22;6756;51.354;15.754;2022-10-30T06:06:52;12.80;99.90
13375;DHT22;6756;51.354;15.754;2022-10-30T06:10:53;12.90;19.10
13375;DHT22;6756;51.354;15.754;2022-10-30T06:14:54;13.00;1.00
13375;DHT22;6756;51.354;15.754;2022-10-30T06:18:55;13.00;99.90
13375;DHT22;6756;51.354;15.754;2022-10-30T06:23:04;13.00;99.90
13375;DHT22;6756;51.354;15.754;2022-10-30T06:27:05;13.10;1.00
13375;DHT22;6756;51.354;15.754;2022-10-30T06:31:06;13.10;99.90
13375;DHT22;6756;51.354;15.754;2022-10-30T06:35:07;13.20;99.90
13375;DHT22;6756;51.354;15.754;2022-10-30T06:39:08;13.20;99.90
13375;DHT22;6756;51.354;15.754;2022-10-30T06:43:09;13.20;99.90
13375;DHT22;6756;51.354;15.754;2022-10-30T06:47:09;13.30;99.90
13375;DHT22;6756;51.354;15.754;2022-10-30T06:51:13;13.40;99.90
13375;DHT22;6756;51.354;15.754;2022-10-30T06:55:15;13.60;7.10
13375;DHT22;6756;51.354;15.754;2022-10-30T06:59:15;13.70;99.90
13375;DHT22;6756;51.354;15.754;2022-10-30T07:03:17;13.70;1.00
13375;DHT22;6756;51.354;15.754;2022-10-30T07:07:18;13.80;99.90
13375;DHT22;6756;51.354;15.754;2022-10-30T07:11:18;13.90;1.00
13375;DHT22;6756;51.354;15.754;2022-10-30T07:15:19;14.00;94.50
13375;DHT22;6756;51.354;15.754;2022-10-30T07:19:20;14.10;33.70
13375;DHT22;6756;51.354;15.754;2022-10-30T07:23:22;14.20;99.90
13375;DHT22;6756;51.354;15.754;2022-10-30T07:27:22;14.40;66.30
13375;DHT22;6756;51.354;15.754;2022-10-30T07:31:23;14.60;1.00
13375;DHT22;6756;51.354;15.754;2022-10-30T07:35:24;14.80;99.90
13375;DHT22;6756;51.354;15.754;2022-10-30T07:39:25;14.90;90.60
13375;DHT22;6756;51.354;15.754;2022-10-30T07:43:26;15.20;1.00
13375;DHT22;6756;51.354;15.754;2022-10-30T07:47:27;15.60;99.90
13375;DHT22;6756;51.354;15.754;2022-10-30T07:51:27;15.90;99.90
13375;DHT22;6756;51.354;15.754;2022-10-30T07:55:28;16.10;96.40
13375;DHT22;6756;51.354;15.754;2022-10-30T07:59:29;16.10;50.60
13375;DHT22;6756;51.354;15.754;2022-10-30T08:03:30;16.20;54.80
13375;DHT22;6756;51.354;15.754;2022-10-30T08:07:31;16.40;66.40
13375;DHT22;6756;51.354;15.754;2022-10-30T08:11:32;16.60;1.00
13375;DHT22;6756;51.354;15.754;2022-10-30T08:15:33;16.80;1.00
13375;DHT22;6756;51.354;15.754;2022-10-30T08:19:34;17.00;1.00
13375;DHT22;6756;51.354;15.754;2022-10-30T08:23:35;17.20;99.90
13375;DHT22;6756;51.354;15.754;2022-10-30T08:27:36;17.40;99.90
13375;DHT22;6756;51.354;15.754;2022-10-30T08:31:36;17.70;99.90
13375;DHT22;6756;51.354;15.754;2022-10-30T08:35:37;18.00;99.90
13375;DHT22;6756;51.354;15.754;2022-10-30T08:39:38;18.20;99.90
13375;DHT22;6756;51.354;15.754;2022-10-30T08:43:39;18.40;99.90
13375;DHT22;6756;51.354;15.754;2022-10-30T08:47:40;18.60;99.90
13375;DHT22;6756;51.354;15.754;2022-10-30T08:51:40;18.80;99.90
13375;DHT22;6756;51.354;15.754;2022-10-30T08:55:42;18.80;99.90
13375;DHT22;6756;51.354;15.754;2022-10-30T08:59:43;18.80;99.90
13375;DHT22;6756;51.354;15.754;2022-10-30T09:03:44;19.00;99.90
13375;DHT22;6756;51.354;15.754;2022-10-30T09:07:46;19.40;99.90
13375;DHT22;6756;51.354;15.754;2022-10-30T09:11:47;19.70;99.90
13375;DHT22;6756;51.354;15.754;2022-10-30T09:15:48;20.10;64.90
13375;DHT22;6756;51.354;15.754;2022-10-30T09:19:49;20.30;64.60
13375;DHT22;6756;51.354;15.754;2022-10-30T09:23:50;20.30;16.00
13375;DHT22;6756;51.354;15.754;2022-10-30T09:27:51;20.40;27.60
13375;DHT22;6756;51.354;15.754;2022-10-30T09:31:51;20.30;1.00
13375;DHT22;6756;51.354;15.754;2022-10-30T09:35:52;20.40;39.30
13375;DHT22;6756;51.354;15.754;2022-10-30T09:39:53;20.40;24.40
13375;DHT22;6756;51.354;15.754;2022-10-30T09:44:04;20.40;29.40
13375;DHT22;6756;51.354;15.754;2022-10-30T09:48:18;20.50;40.60
13375;DHT22;6756;51.354;15.754;2022-10-30T09:52:34;20.80;1.00
13375;DHT22;6756;51.354;15.754;2022-10-30T10:05:24;21.90;1.00
13375;DHT22;6756;51.354;15.754;2022-10-30T10:09:27;22.30;1.00
13375;DHT22;6756;51.354;15.754;2022-10-30T10:13:40;22.40;1.00
13375;DHT22;6756;51.354;15.754;2022-10-30T10:17:44;22.50;1.00
13375;DHT22;6756;51.354;15.754;2022-10-30T10:21:57;22.60;1.00
13375;DHT22;6756;51.354;15.754;2022-10-30T10:26:04;22.80;1.00
13375;DHT22;6756;51.354;15.754;2022-10-30T10:30:14;23.10;1.00
13375;DHT22;6756;51.354;15.754;2022-10-30T10:39:12;23.20;1.00
13375;DHT22;6756;51.354;15.754;2022-10-30T10:43:59;23.40;1.00
13375;DHT22;6756;51.354;15.754;2022-10-30T10:52:48;23.60;1.00
13375;DHT22;6756;51.354;15.754;2022-10-30T10:56:51;23.80;1.00
13375;DHT22;6756;51.354;15.754;2022-10-30T11:00:52;23.70;1.00
13375;DHT22;6756;51.354;15.754;2022-10-30T11:09:26;23.30;1.00
13375;DHT22;6756;51.354;15.754;2022-10-30T11:13:37;23.50;1.00
13375;DHT22;6756;51.354;15.754;2022-10-30T11:17:49;23.70;1.00
13375;DHT22;6756;51.354;15.754;2022-10-30T11:21:52;23.70;1.00
13375;DHT22;6756;51.354;15.754;2022-10-30T11:25:55;23.60;1.00
13375;DHT22;6756;51.354;15.754;2022-10-30T11:29:58;23.50;1.00
13375;DHT22;6756;51.354;15.754;2022-10-30T11:34:38;23.40;1.00
13375;DHT22;6756;51.354;15.754;2022-10-30T11:38:38;23.30;1.00
13375;DHT22;6756;51.354;15.754;2022-10-30T11:42:57;23.30;1.00
13375;DHT22;6756;51.354;15.754;2022-10-30T11:46:59;23.20;1.00
13375;DHT22;6756;51.354;15.754;2022-10-30T11:51:01;23.30;1.00
13375;DHT22;6756;51.354;15.754;2022-10-30T11:55:12;23.40;1.00
13375;DHT22;6756;51.354;15.754;2022-10-30T11:59:19;23.40;1.00
13375;DHT22;6756;51.354;15.754;2022-10-30T12:03:28;23.40;1.00
13375;DHT22;6756;51.354;15.754;2022-10-30T12:07:31;23.40;1.00
13375;DHT22;6756;51.354;15.754;2022-10-30T12:11:34;23.30;1.00
13375;DHT22;6756;51.354;15.754;2022-10-30T12:15:36;23.40;1.00
13375;DHT22;6756;51.354;15.754;2022-10-30T12:19:53;23.40;1.00
13375;DHT22;6756;51.354;15.754;2022-10-30T12:23:57;23.40;1.00
13375;DHT22;6756;51.354;15.754;2022-10-30T12:28:24;23.40;1.00
13375;DHT22;6756;51.354;15.754;2022-10-30T12:32:31;23.40;1.00
13375;DHT22;6756;51.354;15.754;2022-10-30T12:36:39;23.30;1.00
13375;DHT22;6756;51.354;15.754;2022-10-30T12:40:59;23.30;1.00
13375;DHT22;6756;51.354;15.754;2022-10-30T12:45:30;23.30;1.00
13375;DHT22;6756;51.354;15.754;2022-10-30T12:49:42;23.20;1.00
13375;DHT22;6756;51.354;15.754;2022-10-30T13:06:34;23.20;1.00
13375;DHT22;6756;51.354;15.754;2022-10-30T13:10:46;23.10;1.00
13375;DHT22;6756;51.354;15.754;2022-10-30T13:14:51;23.10;1.00
13375;DHT22;6756;51.354;15.754;2022-10-30T13:18:59;23.00;1.00
13375;DHT22;6756;51.354;15.754;2022-10-30T13:23:09;23.00;44.50
13375;DHT22;6756;51.354;15.754;2022-10-30T13:27:15;23.00;18.70
13375;DHT22;6756;51.354;15.754;2022-10-30T13:31:53;23.00;85.80
13375;DHT22;6756;51.354;15.754;2022-10-30T13:36:54;23.00;1.00
13375;DHT22;6756;51.354;15.754;2022-10-30T13:53:44;22.60;9.20
13375;DHT22;6756;51.354;15.754;2022-10-30T14:06:25;22.40;1.00
13375;DHT22;6756;51.354;15.754;2022-10-30T14:10:52;22.30;1.00
13375;DHT22;6756;51.354;15.754;2022-10-30T14:14:53;22.20;27.20
13375;DHT22;6756;51.354;15.754;2022-10-30T14:19:05;22.10;36.20
13375;DHT22;6756;51.354;15.754;2022-10-30T14:23:11;22.00;1.00
13375;DHT22;6756;51.354;15.754;2022-10-30T14:27:19;21.80;1.00
13375;DHT22;6756;51.354;15.754;2022-10-30T14:31:35;21.70;1.00
13375;DHT22;6756;51.354;15.754;2022-10-30T14:35:37;21.50;1.00
13375;DHT22;6756;51.354;15.754;2022-10-30T14:39:46;21.20;68.20
13375;DHT22;6756;51.354;15.754;2022-10-30T14:48:17;20.80;99.90
13375;DHT22;6756;51.354;15.754;2022-10-30T14:56:45;20.30;99.90
13375;DHT22;6756;51.354;15.754;2022-10-30T15:00:50;20.00;99.90
13375;DHT22;6756;51.354;15.754;2022-10-30T15:05:08;19.80;99.90
13375;DHT22;6756;51.354;15.754;2022-10-30T15:13:20;19.30;99.90
13375;DHT22;6756;51.354;15.754;2022-10-30T15:17:36;19.10;99.90
13375;DHT22;6756;51.354;15.754;2022-10-30T15:21:43;18.90;99.90
13375;DHT22;6756;51.354;15.754;2022-10-30T15:25:47;18.60;99.90
13375;DHT22;6756;51.354;15.754;2022-10-30T15:29:59;18.40;99.90
13375;DHT22;6756;51.354;15.754;2022-10-30T15:34:01;18.10;99.90
13375;DHT22;6756;51.354;15.754;2022-10-30T15:38:06;17.80;99.90
13375;DHT22;6756;51.354;15.754;2022-10-30T15:42:08;17.60;1.00
13375;DHT22;6756;51.354;15.754;2022-10-30T15:46:13;17.30;1.00
13375;DHT22;6756;51.354;15.754;2022-10-30T15:50:15;17.10;1.00
13375;DHT22;6756;51.354;15.754;2022-10-30T15:54:18;16.90;1.00
13375;DHT22;6756;51.354;15.754;2022-10-30T15:58:21;16.70;1.00
13375;DHT22;6756;51.354;15.754;2022-10-30T16:02:23;16.50;91.40
13375;DHT22;6756;51.354;15.754;2022-10-30T16:06:28;16.30;99.90
13375;DHT22;6756;51.354;15.754;2022-10-30T16:10:33;16.10;99.90
13375;DHT22;6756;51.354;15.754;2022-10-30T16:14:35;15.90;99.90
13375;DHT22;6756;51.354;15.754;2022-10-30T16:18:36;15.70;1.00
13375;DHT22;6756;51.354;15.754;2022-10-30T16:22:38;15.60;1.00
13375;DHT22;6756;51.354;15.754;2022-10-30T16:26:39;15.40;94.60
13375;DHT22;6756;51.354;15.754;2022-10-30T16:30:40;15.20;99.90
13375;DHT22;6756;51.354;15.754;2022-10-30T16:34:41;15.10;99.90
13375;DHT22;6756;51.354;15.754;2022-10-30T16:38:46;15.10;99.90
13375;DHT22;6756;51.354;15.754;2022-10-30T16:42:59;15.30;74.80
13375;DHT22;6756;51.354;15.754;2022-10-30T16:47:12;15.60;1.00
13375;DHT22;6756;51.354;15.754;2022-10-30T16:51:22;15.70;99.90
13375;DHT22;6756;51.354;15.754;2022-10-30T16:55:23;15.70;99.90
13375;DHT22;6756;51.354;15.754;2022-10-30T16:59:30;15.70;99.90
13375;DHT22;6756;51.354;15.754;2022-10-30T17:03:36;15.50;99.90
13375;DHT22;6756;51.354;15.754;2022-10-30T17:07:38;15.40;99.90
13375;DHT22;6756;51.354;15.754;2022-10-30T17:11:40;15.30;99.90
13375;DHT22;6756;51.354;15.754;2022-10-30T17:15:44;15.10;99.90
13375;DHT22;6756;51.354;15.754;2022-10-30T17:19:47;15.00;1.00
13375;DHT22;6756;51.354;15.754;2022-10-30T17:23:57;14.90;1.00
13375;DHT22;6756;51.354;15.754;2022-10-30T17:27:59;14.90;1.00
13375;DHT22;6756;51.354;15.754;2022-10-30T17:32:10;14.90;1.00
13375;DHT22;6756;51.354;15.754;2022-10-30T17:36:14;14.90;1.00
13375;DHT22;6756;51.354;15.754;2022-10-30T17:40:15;14.80;99.90
13375;DHT22;6756;51.354;15.754;2022-10-30T17:44:20;14.70;1.00
13375;DHT22;6756;51.354;15.754;2022-10-30T17:48:27;14.50;1.00
13375;DHT22;6756;51.354;15.754;2022-10-30T17:52:28;14.30;27.50
13375;DHT22;6756;51.354;15.754;2022-10-30T17:56:32;14.20;99.90
13375;DHT22;6756;51.354;15.754;2022-10-30T18:00:33;14.10;99.90
13375;DHT22;6756;51.354;15.754;2022-10-30T18:04:34;14.10;99.90
13375;DHT22;6756;51.354;15.754;2022-10-30T18:08:35;14.00;99.90
13375;DHT22;6756;51.354;15.754;2022-10-30T18:12:36;13.90;1.00
13375;DHT22;6756;51.354;15.754;2022-10-30T18:16:37;13.90;99.90
13375;DHT22;6756;51.354;15.754;2022-10-30T18:20:38;13.90;99.90
13375;DHT22;6756;51.354;15.754;2022-10-30T18:24:39;13.90;1.00
13375;DHT22;6756;51.354;15.754;2022-10-30T18:28:40;13.80;1.00
13375;DHT22;6756;51.354;15.754;2022-10-30T18:32:44;13.80;1.00
13375;DHT22;6756;51.354;15.754;2022-10-30T18:36:45;13.90;1.00
13375;DHT22;6756;51.354;15.754;2022-10-30T18:40:47;13.90;1.00
13375;DHT22;6756;51.354;15.754;2022-10-30T18:44:50;13.80;1.00
13375;DHT22;6756;51.354;15.754;2022-10-30T18:48:51;13.60;1.00
13375;DHT22;6756;51.354;15.754;2022-10-30T18:52:52;13.50;1.00
13375;DHT22;6756;51.354;15.754;2022-10-30T18:56:53;13.30;99.90
13375;DHT22;6756;51.354;15.754;2022-10-30T19:00:54;13.10;1.00
13375;DHT22;6756;51.354;15.754;2022-10-30T19:04:55;12.90;57.20
13375;DHT22;6756;51.354;15.754;2022-10-30T19:08:56;12.80;6.40
13375;DHT22;6756;51.354;15.754;2022-10-30T19:13:12;12.60;99.90
13375;DHT22;6756;51.354;15.754;2022-10-30T19:17:13;12.40;99.90
13375;DHT22;6756;51.354;15.754;2022-10-30T19:21:19;12.20;99.90
13375;DHT22;6756;51.354;15.754;2022-10-30T19:25:24;12.10;1.00
13375;DHT22;6756;51.354;15.754;2022-10-30T19:29:26;11.90;99.90
13375;DHT22;6756;51.354;15.754;2022-10-30T19:33:30;11.80;96.00
13375;DHT22;6756;51.354;15.754;2022-10-30T19:37:31;11.60;99.90
13375;DHT22;6756;51.354;15.754;2022-10-30T19:41:32;11.40;99.90
13375;DHT22;6756;51.354;15.754;2022-10-30T19:45:33;11.20;99.90
13375;DHT22;6756;51.354;15.754;2022-10-30T19:49:34;11.00;1.00
13375;DHT22;6756;51.354;15.754;2022-10-30T19:53:36;10.90;1.00
13375;DHT22;6756;51.354;15.754;2022-10-30T19:57:37;10.80;73.20
13375;DHT22;6756;51.354;15.754;2022-10-30T20:01:38;10.80;99.90
13375;DHT22;6756;51.354;15.754;2022-10-30T20:05:43;10.80;99.90
13375;DHT22;6756;51.354;15.754;2022-10-30T20:09:47;10.70;99.90
13375;DHT22;6756;51.354;15.754;2022-10-30T20:13:48;10.70;99.90
13375;DHT22;6756;51.354;15.754;2022-10-30T20:17:49;10.60;99.90
13375;DHT22;6756;51.354;15.754;2022-10-30T20:21:50;10.40;99.90
13375;DHT22;6756;51.354;15.754;2022-10-30T20:26:00;10.40;99.90
13375;DHT22;6756;51.354;15.754;2022-10-30T20:30:02;10.30;99.90
13375;DHT22;6756;51.354;15.754;2022-10-30T20:34:03;10.20;99.90
13375;DHT22;6756;51.354;15.754;2022-10-30T20:38:04;10.20;99.90
13375;DHT22;6756;51.354;15.754;2022-10-30T20:42:05;10.20;99.90
13375;DHT22;6756;51.354;15.754;2022-10-30T20:46:06;10.30;99.90
13375;DHT22;6756;51.354;15.754;2022-10-30T20:50:09;10.30;99.90
13375;DHT22;6756;51.354;15.754;2022-10-30T20:54:11;10.20;99.90
13375;DHT22;6756;51.354;15.754;2022-10-30T20:58:11;10.10;99.90
13375;DHT22;6756;51.354;15.754;2022-10-30T21:02:12;10.10;99.90
13375;DHT22;6756;51.354;15.754;2022-10-30T21:06:13;9.90;99.90
13375;DHT22;6756;51.354;15.754;2022-10-30T21:10:15;9.90;99.90
13375;DHT22;6756;51.354;15.754;2022-10-30T21:14:16;9.80;99.90
13375;DHT22;6756;51.354;15.754;2022-10-30T21:18:17;9.70;99.90
13375;DHT22;6756;51.354;15.754;2022-10-30T21:22:17;9.60;99.90
13375;DHT22;6756;51.354;15.754;2022-10-30T21:26:18;9.50;99.90
13375;DHT22;6756;51.354;15.754;2022-10-30T21:30:19;9.50;99.90
13375;DHT22;6756;51.354;15.754;2022-10-30T21:34:20;9.50;99.90
13375;DHT22;6756;51.354;15.754;2022-10-30T21:38:21;9.50;99.90
13375;DHT22;6756;51.354;15.754;2022-10-30T21:42:22;9.50;99.90
13375;DHT22;6756;51.354;15.754;2022-10-30T21:46:25;9.40;99.90
13375;DHT22;6756;51.354;15.754;2022-10-30T21:50:27;9.30;99.90
13375;DHT22;6756;51.354;15.754;2022-10-30T21:54:27;9.20;99.90
13375;DHT22;6756;51.354;15.754;2022-10-30T21:58:28;9.10;99.90
13375;DHT22;6756;51.354;15.754;2022-10-30T22:02:29;9.00;99.90
13375;DHT22;6756;51.354;15.754;2022-10-30T22:06:30;9.00;99.90
13375;DHT22;6756;51.354;15.754;2022-10-30T22:10:32;8.90;99.90
13375;DHT22;6756;51.354;15.754;2022-10-30T22:14:33;8.90;99.90
13375;DHT22;6756;51.354;15.754;2022-10-30T22:18:34;8.90;99.90
13375;DHT22;6756;51.354;15.754;2022-10-30T22:22:35;8.90;99.90
13375;DHT22;6756;51.354;15.754;2022-10-30T22:26:35;9.00;99.90
13375;DHT22;6756;51.354;15.754;2022-10-30T22:30:36;9.20;99.90
13375;DHT22;6756;51.354;15.754;2022-10-30T22:34:37;9.40;99.90
13375;DHT22;6756;51.354;15.754;2022-10-30T22:38:38;9.60;99.90
13375;DHT22;6756;51.354;15.754;2022-10-30T22:42:39;9.70;99.90
13375;DHT22;6756;51.354;15.754;2022-10-30T22:46:40;9.90;99.90
13375;DHT22;6756;51.354;15.754;2022-10-30T22:50:41;10.10;99.90
13375;DHT22;6756;51.354;15.754;2022-10-30T22:54:44;10.30;99.90
13375;DHT22;6756;51.354;15.754;2022-10-30T22:58:47;10.50;99.90
13375;DHT22;6756;51.354;15.754;2022-10-30T23:02:48;10.70;99.90
13375;DHT22;6756;51.354;15.754;2022-10-30T23:06:48;10.80;99.90
13375;DHT22;6756;51.354;15.754;2022-10-30T23:10:53;10.90;99.90
13375;DHT22;6756;51.354;15.754;2022-10-30T23:14:54;11.00;99.90
13375;DHT22;6756;51.354;15.754;2022-10-30T23:18:57;11.00;99.90
13375;DHT22;6756;51.354;15.754;2022-10-30T23:22:58;11.10;99.90
13375;DHT22;6756;51.354;15.754;2022-10-30T23:26:59;11.10;99.90
13375;DHT22;6756;51.354;15.754;2022-10-30T23:31:05;11.20;99.90
13375;DHT22;6756;51.354;15.754;2022-10-30T23:35:07;11.20;99.90
13375;DHT22;6756;51.354;15.754;2022-10-30T23:39:17;11.20;99.90
13375;DHT22;6756;51.354;15.754;2022-10-30T23:43:18;11.20;99.90
13375;DHT22;6756;51.354;15.754;2022-10-30T23:47:19;11.30;99.90
13375;DHT22;6756;51.354;15.754;2022-10-30T23:51:20;11.40;99.90
13375;DHT22;6756;51.354;15.754;2022-10-30T23:55:21;11.50;99.90
13375;DHT22;6756;51.354;15.754;2022-10-30T23:59:22;11.60;99.90
